ΕΜΥ, Εθνική Μετεωρολογική Υπηρεσία - Δελτία Καιρού, Προγνώσεις

ΑΕΡΟΝΑΥΤΙΛΙΑ

GREEK AIRPORTS CODES

LGTP 281100Z 00000KT CAVOK 09/M03 Q1020=

EUROPEAN AIRPORTS CODES

LFPO 281130Z 26005KT 9999 SCT010 BKN014 07/06 Q1038 NOSIG=